Milton, Kansas
Current Conditions -  °F | °C
As of 3:53 PM on Wednesday 26 Nov 2014 (Local Time) from KICT Reporting Station
Broken Clouds Broken Clouds  
Wind Chill: 36°   Ceiling: 11000
Heat Index: 44°   Visibility: 10mi
Dew Point: 22°   Wind: 20mph
Humidity: 42%   Direction: 330°NNW
Pressure: 30.25"   Gusts: 33mph
Location:  37.43°N, 97.77°W
Report Text: KICT 262153Z 33017G29KT 10SM BKN110 BKN250 07/M06 A3025 RMK AO2 PK WND 32030/2111 SLP248 T00671056
Loading
Personal Weather Stations






























Interactive Weather Map New forecast layout! Learn more

10-Day Weather Forecast

Advertisements
Track Severe Weather on mobile